Bookmark and Share
Track history (hours):
 

Mid Fortune

Last reported at 2014-Apr-11 14:22 UTC. Time now 2014-Apr-17 12:34 UTC.
Position S 29°44' E 031°38'.

Length 147 m; draft 7.8 m.

Type: Tanker. MMSI: 319182000.

NotesDate/timePositionNaut miles runAvg speedWind from/ knotsBaromVisibWave heightAir tempDewpointWater temp
2014-Apr-11 14:22S 29°44' E 031°38'1011.6
2014-Apr-11 13:32S 29°46' E 031°27'1212.3
2014-Apr-11 12:33S 29°49' E 031°14'1010.1
2014-Apr-11 11:33S 29°53' E 031°03'1 0.8
2014-Apr-11 10:24S 29°53' E 031°02'0 0.0
2014-Apr-11 09:30S 29°53' E 031°02'0 0.0
2014-Apr-11 08:12S 29°53' E 031°02'0 0.0
2014-Apr-11 07:30S 29°53' E 031°02'0 0.0
2014-Apr-11 06:30S 29°53' E 031°02'0 0.0
2014-Apr-11 05:24S 29°53' E 031°02'0 0.0
2014-Apr-11 04:30S 29°53' E 031°02'0 0.0
2014-Apr-11 03:30S 29°53' E 031°02'0 0.0
2014-Apr-11 02:18S 29°53' E 031°02'0 0.0
2014-Apr-11 01:24S 29°53' E 031°02'0 0.0
2014-Apr-11 00:06S 29°53' E 031°02'0 0.0
2014-Apr-10 23:24S 29°53' E 031°02'0 0.0
2014-Apr-10 22:24S 29°53' E 031°02'0 0.0
2014-Apr-10 20:30S 29°53' E 031°02'0 0.0
2014-Apr-10 18:30S 29°53' E 031°02'0 0.0
2014-Apr-10 17:18S 29°53' E 031°02'0 0.0
2014-Apr-10 15:30S 29°53' E 031°02'0 0.0
2014-Apr-10 14:30S 29°53' E 031°02'0 0.0
2014-Apr-10 13:30S 29°53' E 031°02'0 0.0
2014-Apr-10 12:30S 29°53' E 031°02'0 0.0
2014-Apr-10 11:29S 29°53' E 031°02'1 1.0
2014-Apr-10 10:33S 29°52' E 031°03'5 4.6
2014-Apr-10 09:33S 29°49' E 031°06'3 2.5
2014-Apr-10 08:15S 29°47' E 031°09'0 0.0
2014-Apr-10 07:21S 29°47' E 031°09'0 0.0
2014-Apr-10 06:27S 29°47' E 031°09'0 0.0
2014-Apr-10 05:21S 29°47' E 031°09'0 0.0
2014-Apr-10 04:33S 29°47' E 031°09'0 0.0
2014-Apr-10 03:27S 29°47' E 031°09'0 0.0
2014-Apr-10 02:21S 29°47' E 031°09'0 0.0
2014-Apr-10 01:21S 29°47' E 031°09'0 0.0
2014-Apr-10 00:27S 29°47' E 031°09'0 0.0
2014-Apr-09 23:27S 29°47' E 031°09'0 0.0
2014-Apr-09 22:21S 29°47' E 031°09'0 0.0
2014-Apr-09 21:27S 29°47' E 031°09'0 0.0
2014-Apr-09 20:15S 29°47' E 031°09'0 0.0
2014-Apr-09 19:27S 29°47' E 031°09'0 0.0
2014-Apr-09 18:33S 29°47' E 031°09'0 0.0
2014-Apr-09 17:21S 29°47' E 031°09'0 0.0
2014-Apr-09 16:33S 29°47' E 031°09'0 0.0
2014-Apr-09 14:27S 29°47' E 031°09'0 0.0
2014-Apr-09 13:33S 29°47' E 031°09'0 0.0
2014-Apr-09 12:33S 29°47' E 031°09'0 0.0
2014-Apr-09 10:27S 29°47' E 031°09'0 0.0
2014-Apr-09 09:33S 29°47' E 031°09'0 0.0
2014-Apr-09 08:33S 29°47' E 031°09'0 0.0
2014-Apr-09 07:33S 29°47' E 031°09'0 0.0
2014-Apr-09 06:33S 29°47' E 031°09'0 0.0
2014-Apr-09 05:33S 29°47' E 031°09'0 0.0
2014-Apr-09 04:33S 29°47' E 031°09'0 0.0
2014-Apr-09 03:33S 29°47' E 031°09'0 0.0
2014-Apr-09 02:33S 29°47' E 031°09'0 0.0
2014-Apr-09 01:33S 29°47' E 031°09'0 0.0
2014-Apr-09 00:33S 29°47' E 031°09'0 0.0
2014-Apr-08 23:33S 29°47' E 031°09'0 0.1
2014-Apr-08 22:33S 29°47' E 031°09'0 0.0
2014-Apr-08 21:33S 29°47' E 031°09'0 0.0
2014-Apr-08 20:33S 29°47' E 031°09'0 0.0
2014-Apr-08 19:33S 29°47' E 031°09'0 0.0
2014-Apr-08 18:32S 29°47' E 031°09'0 0.0
2014-Apr-08 17:33S 29°47' E 031°09'0 0.0
2014-Apr-08 16:33S 29°47' E 031°09'0 0.0
2014-Apr-08 15:33S 29°47' E 031°09'0 0.0
2014-Apr-08 14:33S 29°47' E 031°09'0 0.0
2014-Apr-08 13:33S 29°47' E 031°09'0 0.0
2014-Apr-08 12:33S 29°47' E 031°09'0 0.0
2014-Apr-08 11:33S 29°47' E 031°09'0 0.1
2014-Apr-08 10:33S 29°46' E 031°09'9 9.1
2014-Apr-08 09:31S 29°53' E 031°17'5 5.1
2014-Apr-08 08:33S 29°56' E 031°22'2 1.6
2014-Apr-08 07:33S 29°55' E 031°23'2 1.7
2014-Apr-08 06:33S 29°55' E 031°25'2 2.0
2014-Apr-08 05:23S 29°53' E 031°27'4 4.3
2014-Apr-08 04:33S 29°54' E 031°23'6 6.3
2014-Apr-08 03:33S 29°56' E 031°17'1 1.0
2014-Apr-08 02:32S 29°57' E 031°18'1 1.4
2014-Apr-08 01:33S 29°57' E 031°19'2 1.7
2014-Apr-08 00:33S 29°56' E 031°21'2 1.9
2014-Apr-07 23:33S 29°55' E 031°23'2 2.3
2014-Apr-07 22:33S 29°54' E 031°26'2 2.3
2014-Apr-07 21:33S 29°53' E 031°28'7 7.0
2014-Apr-07 20:33S 29°60' E 031°26'3 2.8
2014-Apr-07 19:30S 30°03' E 031°26'4 1.9
2014-Apr-07 17:30S 29°60' E 031°28'9 9.5
2014-Apr-07 16:33S 29°56' E 031°19'9 9.5
2014-Apr-07 15:34S 29°48' E 031°13'1413.3
2014-Apr-07 14:29S 29°37' E 031°24'14 2.3
2014-Apr-07 08:17S 29°28' E 031°37'  
2014-Apr-03 13:34S 29°27' E 031°34'1414.0
2014-Apr-03 12:33S 29°36' E 031°21'11 8.7
2014-Apr-03 11:17S 29°43' E 031°12'0 0.0
2014-Apr-03 10:17S 29°44' E 031°12'0 0.0
2014-Apr-03 09:23S 29°43' E 031°12'0 0.0
2014-Apr-03 08:29S 29°43' E 031°12'0 0.0
2014-Apr-03 07:29S 29°43' E 031°12'0 0.0
2014-Apr-03 06:29S 29°43' E 031°12'0 0.0
2014-Apr-03 05:29S 29°43' E 031°12'0 0.0
2014-Apr-03 03:17S 29°44' E 031°12'0 0.0
2014-Apr-03 02:23S 29°44' E 031°12'0 0.0
2014-Apr-03 01:17S 29°44' E 031°12'0 0.0
2014-Apr-03 00:23S 29°44' E 031°12'0 0.0
2014-Apr-02 23:23S 29°44' E 031°12'1 1.3
2014-Apr-02 22:33S 29°44' E 031°13'1313.2
2014-Apr-02 21:34S 29°57' E 031°12'1413.8
2014-Apr-02 20:32S 30°11' E 031°10'  

Dump ship's entire track history

sailing weather and tide predictions

Mid Fortune — ZGCG8 — position and weather